sensor_id;sensor_type;location;lat;lon;timestamp;pressure;altitude;pressure_sealevel;temperature;humidity
46211;BME280;52144;48.040;-1.594;2023-07-13T00:01:18;101391.63;;;21.40;68.54
46211;BME280;52144;48.040;-1.594;2023-07-13T00:03:47;101385.00;;;21.44;68.11
46211;BME280;52144;48.040;-1.594;2023-07-13T00:06:15;101394.97;;;21.44;67.77
46211;BME280;52144;48.040;-1.594;2023-07-13T00:08:43;101395.81;;;21.33;68.24
46211;BME280;52144;48.040;-1.594;2023-07-13T00:11:11;101391.75;;;21.28;68.49
46211;BME280;52144;48.040;-1.594;2023-07-13T00:13:41;101397.56;;;21.23;68.26
46211;BME280;52144;48.040;-1.594;2023-07-13T00:16:10;101387.66;;;20.99;69.36
46211;BME280;52144;48.040;-1.594;2023-07-13T00:18:39;101390.50;;;20.87;70.18
46211;BME280;52144;48.040;-1.594;2023-07-13T00:21:07;101392.56;;;20.94;69.63
46211;BME280;52144;48.040;-1.594;2023-07-13T00:23:37;101396.66;;;21.00;68.74
46211;BME280;52144;48.040;-1.594;2023-07-13T00:26:08;101389.75;;;20.96;69.02
46211;BME280;52144;48.040;-1.594;2023-07-13T00:28:38;101393.94;;;20.89;69.69
46211;BME280;52144;48.040;-1.594;2023-07-13T00:31:08;101390.75;;;20.95;69.04
46211;BME280;52144;48.040;-1.594;2023-07-13T00:33:36;101387.78;;;20.87;69.45
46211;BME280;52144;48.040;-1.594;2023-07-13T00:36:04;101398.09;;;20.70;69.85
46211;BME280;52144;48.040;-1.594;2023-07-13T00:38:32;101394.19;;;20.86;69.24
46211;BME280;52144;48.040;-1.594;2023-07-13T00:41:00;101389.63;;;20.97;68.50
46211;BME280;52144;48.040;-1.594;2023-07-13T00:43:30;101393.94;;;20.89;68.25
46211;BME280;52144;48.040;-1.594;2023-07-13T00:46:22;101392.31;;;20.86;68.90
46211;BME280;52144;48.040;-1.594;2023-07-13T00:48:51;101389.50;;;20.88;68.79
46211;BME280;52144;48.040;-1.594;2023-07-13T00:51:25;101385.63;;;20.68;69.75
46211;BME280;52144;48.040;-1.594;2023-07-13T00:53:56;101384.22;;;20.51;70.47
46211;BME280;52144;48.040;-1.594;2023-07-13T00:56:26;101381.78;;;20.48;70.85
46211;BME280;52144;48.040;-1.594;2023-07-13T00:58:55;101387.56;;;20.54;70.63
46211;BME280;52144;48.040;-1.594;2023-07-13T01:01:26;101377.78;;;20.40;71.36
46211;BME280;52144;48.040;-1.594;2023-07-13T01:03:54;101387.31;;;20.57;70.66
46211;BME280;52144;48.040;-1.594;2023-07-13T01:06:23;101379.41;;;20.43;71.45
46211;BME280;52144;48.040;-1.594;2023-07-13T01:08:51;101381.94;;;20.33;72.23
46211;BME280;52144;48.040;-1.594;2023-07-13T01:11:21;101388.44;;;20.31;72.27
46211;BME280;52144;48.040;-1.594;2023-07-13T01:13:49;101379.44;;;20.19;73.25
46211;BME280;52144;48.040;-1.594;2023-07-13T01:16:22;101375.78;;;20.31;72.14
46211;BME280;52144;48.040;-1.594;2023-07-13T01:18:53;101375.50;;;20.23;72.98
46211;BME280;52144;48.040;-1.594;2023-07-13T01:21:22;101380.28;;;20.43;71.92
46211;BME280;52144;48.040;-1.594;2023-07-13T01:23:50;101393.75;;;20.32;72.45
46211;BME280;52144;48.040;-1.594;2023-07-13T01:26:17;101390.59;;;20.38;73.02
46211;BME280;52144;48.040;-1.594;2023-07-13T01:28:45;101395.91;;;20.51;72.63
46211;BME280;52144;48.040;-1.594;2023-07-13T01:31:13;101398.81;;;20.61;72.05
46211;BME280;52144;48.040;-1.594;2023-07-13T01:33:41;101396.53;;;20.55;72.86
46211;BME280;52144;48.040;-1.594;2023-07-13T01:36:10;101389.09;;;20.34;73.52
46211;BME280;52144;48.040;-1.594;2023-07-13T01:38:40;101388.94;;;20.24;74.55
46211;BME280;52144;48.040;-1.594;2023-07-13T01:41:10;101385.63;;;20.32;74.54
46211;BME280;52144;48.040;-1.594;2023-07-13T01:43:38;101384.84;;;20.19;75.51
46211;BME280;52144;48.040;-1.594;2023-07-13T01:46:06;101392.13;;;20.54;73.59
46211;BME280;52144;48.040;-1.594;2023-07-13T01:48:48;101394.03;;;20.64;73.41
46211;BME280;52144;48.040;-1.594;2023-07-13T01:51:16;101390.28;;;20.54;74.30
46211;BME280;52144;48.040;-1.594;2023-07-13T01:53:45;101384.41;;;20.36;74.91
46211;BME280;52144;48.040;-1.594;2023-07-13T01:56:13;101395.44;;;20.22;76.41
46211;BME280;52144;48.040;-1.594;2023-07-13T01:58:41;101395.78;;;20.53;74.96
46211;BME280;52144;48.040;-1.594;2023-07-13T02:01:09;101393.81;;;20.43;75.51
46211;BME280;52144;48.040;-1.594;2023-07-13T02:03:37;101390.84;;;20.35;76.48
46211;BME280;52144;48.040;-1.594;2023-07-13T02:06:04;101394.72;;;20.31;77.03
46211;BME280;52144;48.040;-1.594;2023-07-13T02:08:32;101388.63;;;20.40;76.28
46211;BME280;52144;48.040;-1.594;2023-07-13T02:11:02;101389.63;;;20.51;76.03
46211;BME280;52144;48.040;-1.594;2023-07-13T02:13:30;101396.09;;;20.61;75.95
46211;BME280;52144;48.040;-1.594;2023-07-13T02:15:58;101391.19;;;20.66;75.65
46211;BME280;52144;48.040;-1.594;2023-07-13T02:18:26;101398.50;;;20.53;76.87
46211;BME280;52144;48.040;-1.594;2023-07-13T02:20:54;101390.50;;;20.51;77.16
46211;BME280;52144;48.040;-1.594;2023-07-13T02:23:22;101393.09;;;20.53;76.21
46211;BME280;52144;48.040;-1.594;2023-07-13T02:25:54;101389.00;;;20.47;77.38
46211;BME280;52144;48.040;-1.594;2023-07-13T02:28:24;101386.44;;;20.57;76.65
46211;BME280;52144;48.040;-1.594;2023-07-13T02:30:51;101390.63;;;20.50;77.03
46211;BME280;52144;48.040;-1.594;2023-07-13T02:33:19;101382.34;;;20.64;76.51
46211;BME280;52144;48.040;-1.594;2023-07-13T02:35:47;101381.63;;;20.49;77.01
46211;BME280;52144;48.040;-1.594;2023-07-13T02:38:15;101379.34;;;20.56;77.99
46211;BME280;52144;48.040;-1.594;2023-07-13T02:40:43;101389.25;;;20.68;76.59
46211;BME280;52144;48.040;-1.594;2023-07-13T02:43:12;101380.41;;;20.89;75.25
46211;BME280;52144;48.040;-1.594;2023-07-13T02:45:44;101387.13;;;20.72;76.27
46211;BME280;52144;48.040;-1.594;2023-07-13T02:48:13;101384.56;;;20.81;76.80
46211;BME280;52144;48.040;-1.594;2023-07-13T02:50:42;101386.56;;;21.02;75.35
46211;BME280;52144;48.040;-1.594;2023-07-13T02:53:09;101383.47;;;20.95;74.98
46211;BME280;52144;48.040;-1.594;2023-07-13T02:55:37;101393.06;;;20.88;76.45
46211;BME280;52144;48.040;-1.594;2023-07-13T02:58:07;101394.31;;;20.95;75.77
46211;BME280;52144;48.040;-1.594;2023-07-13T03:00:38;101381.03;;;21.03;75.36
46211;BME280;52144;48.040;-1.594;2023-07-13T03:03:09;101388.28;;;21.14;74.62
46211;BME280;52144;48.040;-1.594;2023-07-13T03:05:37;101381.75;;;20.94;76.73
46211;BME280;52144;48.040;-1.594;2023-07-13T03:08:05;101387.53;;;20.90;77.25
46211;BME280;52144;48.040;-1.594;2023-07-13T03:10:33;101392.97;;;21.01;75.79
46211;BME280;52144;48.040;-1.594;2023-07-13T03:13:01;101384.59;;;21.04;75.44
46211;BME280;52144;48.040;-1.594;2023-07-13T03:15:29;101387.19;;;21.06;76.12
46211;BME280;52144;48.040;-1.594;2023-07-13T03:17:57;101385.09;;;21.09;75.97
46211;BME280;52144;48.040;-1.594;2023-07-13T03:20:26;101389.91;;;21.06;75.24
46211;BME280;52144;48.040;-1.594;2023-07-13T03:22:54;101389.75;;;20.84;77.17
46211;BME280;52144;48.040;-1.594;2023-07-13T03:25:22;101385.19;;;20.96;76.78
46211;BME280;52144;48.040;-1.594;2023-07-13T03:27:50;101383.00;;;21.01;76.34
46211;BME280;52144;48.040;-1.594;2023-07-13T03:30:17;101389.78;;;21.07;77.47
46211;BME280;52144;48.040;-1.594;2023-07-13T03:32:45;101389.53;;;20.99;77.07
46211;BME280;52144;48.040;-1.594;2023-07-13T03:35:13;101394.53;;;20.92;78.68
46211;BME280;52144;48.040;-1.594;2023-07-13T03:37:42;101399.88;;;21.05;76.80
46211;BME280;52144;48.040;-1.594;2023-07-13T03:40:12;101395.56;;;21.02;77.89
46211;BME280;52144;48.040;-1.594;2023-07-13T03:42:39;101386.94;;;20.97;78.07
46211;BME280;52144;48.040;-1.594;2023-07-13T03:45:08;101391.72;;;21.16;76.57
46211;BME280;52144;48.040;-1.594;2023-07-13T03:47:36;101387.19;;;21.39;75.89
46211;BME280;52144;48.040;-1.594;2023-07-13T03:50:05;101390.16;;;21.25;76.20
46211;BME280;52144;48.040;-1.594;2023-07-13T03:52:32;101393.59;;;21.04;77.81
46211;BME280;52144;48.040;-1.594;2023-07-13T03:55:02;101399.25;;;21.01;77.37
46211;BME280;52144;48.040;-1.594;2023-07-13T03:57:30;101403.69;;;21.14;78.22
46211;BME280;52144;48.040;-1.594;2023-07-13T03:59:58;101401.84;;;21.26;76.85
46211;BME280;52144;48.040;-1.594;2023-07-13T04:02:25;101407.50;;;21.11;77.74
46211;BME280;52144;48.040;-1.594;2023-07-13T04:04:53;101410.34;;;21.10;78.39
46211;BME280;52144;48.040;-1.594;2023-07-13T04:07:21;101400.63;;;21.07;78.21
46211;BME280;52144;48.040;-1.594;2023-07-13T04:09:49;101414.53;;;21.14;77.22
46211;BME280;52144;48.040;-1.594;2023-07-13T04:12:18;101417.38;;;21.23;77.45
46211;BME280;52144;48.040;-1.594;2023-07-13T04:14:46;101420.56;;;21.40;76.65
46211;BME280;52144;48.040;-1.594;2023-07-13T04:17:14;101409.75;;;21.51;75.48
46211;BME280;52144;48.040;-1.594;2023-07-13T04:19:41;101423.53;;;21.26;76.88
46211;BME280;52144;48.040;-1.594;2023-07-13T04:22:09;101419.81;;;21.27;77.54
46211;BME280;52144;48.040;-1.594;2023-07-13T04:24:37;101413.41;;;21.39;76.41
46211;BME280;52144;48.040;-1.594;2023-07-13T04:27:05;101417.41;;;21.46;76.26
46211;BME280;52144;48.040;-1.594;2023-07-13T04:29:34;101413.56;;;21.37;76.09
46211;BME280;52144;48.040;-1.594;2023-07-13T04:32:03;101420.56;;;21.40;75.85
46211;BME280;52144;48.040;-1.594;2023-07-13T04:34:31;101427.63;;;21.42;76.39
46211;BME280;52144;48.040;-1.594;2023-07-13T04:36:59;101422.06;;;21.21;76.75
46211;BME280;52144;48.040;-1.594;2023-07-13T04:39:27;101429.66;;;21.16;78.68
46211;BME280;52144;48.040;-1.594;2023-07-13T04:41:55;101424.50;;;21.13;77.90
46211;BME280;52144;48.040;-1.594;2023-07-13T04:44:23;101423.75;;;21.22;77.54
46211;BME280;52144;48.040;-1.594;2023-07-13T04:46:52;101421.91;;;21.12;78.69
46211;BME280;52144;48.040;-1.594;2023-07-13T04:49:20;101423.25;;;21.06;79.10
46211;BME280;52144;48.040;-1.594;2023-07-13T04:51:48;101425.88;;;21.30;77.36
46211;BME280;52144;48.040;-1.594;2023-07-13T04:54:15;101431.06;;;21.33;77.69
46211;BME280;52144;48.040;-1.594;2023-07-13T04:56:43;101428.19;;;21.35;77.21
46211;BME280;52144;48.040;-1.594;2023-07-13T04:59:11;101430.88;;;20.90;79.06
46211;BME280;52144;48.040;-1.594;2023-07-13T05:01:39;101437.56;;;21.19;77.99
46211;BME280;52144;48.040;-1.594;2023-07-13T05:04:08;101440.41;;;21.29;77.61
46211;BME280;52144;48.040;-1.594;2023-07-13T05:06:36;101438.66;;;21.06;78.88
46211;BME280;52144;48.040;-1.594;2023-07-13T05:09:04;101443.84;;;21.20;78.57
46211;BME280;52144;48.040;-1.594;2023-07-13T05:11:32;101440.50;;;21.16;78.39
46211;BME280;52144;48.040;-1.594;2023-07-13T05:14:00;101449.03;;;20.65;81.38
46211;BME280;52144;48.040;-1.594;2023-07-13T05:16:28;101440.44;;;20.71;81.35
46211;BME280;52144;48.040;-1.594;2023-07-13T05:18:56;101451.31;;;20.82;80.43
46211;BME280;52144;48.040;-1.594;2023-07-13T05:21:25;101450.88;;;21.22;78.56
46211;BME280;52144;48.040;-1.594;2023-07-13T05:23:53;101450.88;;;21.22;78.36
46211;BME280;52144;48.040;-1.594;2023-07-13T05:26:22;101453.34;;;21.37;77.96
46211;BME280;52144;48.040;-1.594;2023-07-13T05:28:50;101458.75;;;21.37;77.89
46211;BME280;52144;48.040;-1.594;2023-07-13T05:31:18;101459.72;;;21.24;78.23
46211;BME280;52144;48.040;-1.594;2023-07-13T05:33:46;101462.81;;;21.20;78.72
46211;BME280;52144;48.040;-1.594;2023-07-13T05:36:14;101466.88;;;21.37;77.92
46211;BME280;52144;48.040;-1.594;2023-07-13T05:38:43;101463.88;;;20.95;80.12
46211;BME280;52144;48.040;-1.594;2023-07-13T05:41:11;101466.91;;;20.79;81.90
46211;BME280;52144;48.040;-1.594;2023-07-13T05:43:39;101471.53;;;21.01;81.01
46211;BME280;52144;48.040;-1.594;2023-07-13T05:46:06;101474.25;;;21.12;79.70
46211;BME280;52144;48.040;-1.594;2023-07-13T05:48:34;101473.44;;;21.23;79.23
46211;BME280;52144;48.040;-1.594;2023-07-13T05:51:02;101474.72;;;21.06;80.41
46211;BME280;52144;48.040;-1.594;2023-07-13T05:53:30;101480.19;;;21.17;79.86
46211;BME280;52144;48.040;-1.594;2023-07-13T05:55:59;101485.84;;;21.37;78.99
46211;BME280;52144;48.040;-1.594;2023-07-13T05:58:28;101482.91;;;21.17;79.03
46211;BME280;52144;48.040;-1.594;2023-07-13T06:01:01;101490.84;;;20.96;81.00
46211;BME280;52144;48.040;-1.594;2023-07-13T06:03:30;101486.31;;;21.08;80.79
46211;BME280;52144;48.040;-1.594;2023-07-13T06:05:57;101497.94;;;20.86;80.14
46211;BME280;52144;48.040;-1.594;2023-07-13T06:08:27;101498.63;;;21.12;79.48
46211;BME280;52144;48.040;-1.594;2023-07-13T06:10:58;101501.59;;;21.20;80.12
46211;BME280;52144;48.040;-1.594;2023-07-13T06:13:30;101508.56;;;21.47;78.38
46211;BME280;52144;48.040;-1.594;2023-07-13T06:15:57;101510.69;;;21.55;78.58
46211;BME280;52144;48.040;-1.594;2023-07-13T06:18:25;101502.13;;;21.37;78.53
46211;BME280;52144;48.040;-1.594;2023-07-13T06:20:53;101497.19;;;21.31;78.82
46211;BME280;52144;48.040;-1.594;2023-07-13T06:23:21;101505.38;;;21.53;77.69
46211;BME280;52144;48.040;-1.594;2023-07-13T06:25:48;101507.59;;;21.59;78.26
46211;BME280;52144;48.040;-1.594;2023-07-13T06:28:16;101504.13;;;22.02;76.40
46211;BME280;52144;48.040;-1.594;2023-07-13T06:30:45;101509.69;;;22.01;77.11
46211;BME280;52144;48.040;-1.594;2023-07-13T06:33:13;101515.72;;;22.04;75.89
46211;BME280;52144;48.040;-1.594;2023-07-13T06:35:41;101513.97;;;22.15;73.89
46211;BME280;52144;48.040;-1.594;2023-07-13T06:38:09;101519.19;;;21.73;75.84
46211;BME280;52144;48.040;-1.594;2023-07-13T06:40:36;101523.75;;;21.50;76.84
46211;BME280;52144;48.040;-1.594;2023-07-13T06:43:04;101525.25;;;21.54;77.85
46211;BME280;52144;48.040;-1.594;2023-07-13T06:45:34;101532.88;;;21.82;76.59
46211;BME280;52144;48.040;-1.594;2023-07-13T06:48:04;101525.66;;;21.36;78.88
46211;BME280;52144;48.040;-1.594;2023-07-13T06:50:32;101542.50;;;21.87;76.88
46211;BME280;52144;48.040;-1.594;2023-07-13T06:53:00;101527.81;;;21.89;76.98
46211;BME280;52144;48.040;-1.594;2023-07-13T06:55:28;101530.78;;;21.75;78.73
46211;BME280;52144;48.040;-1.594;2023-07-13T06:57:56;101528.41;;;22.04;76.27
46211;BME280;52144;48.040;-1.594;2023-07-13T07:00:24;101531.84;;;22.29;75.77
46211;BME280;52144;48.040;-1.594;2023-07-13T07:02:52;101523.31;;;22.22;75.96
46211;BME280;52144;48.040;-1.594;2023-07-13T07:05:22;101527.75;;;22.46;75.29
46211;BME280;52144;48.040;-1.594;2023-07-13T07:07:50;101523.34;;;22.33;75.01
46211;BME280;52144;48.040;-1.594;2023-07-13T07:10:18;101541.84;;;22.28;76.07
46211;BME280;52144;48.040;-1.594;2023-07-13T07:12:46;101540.13;;;22.16;75.99
46211;BME280;52144;48.040;-1.594;2023-07-13T07:15:14;101538.00;;;22.31;75.26
46211;BME280;52144;48.040;-1.594;2023-07-13T07:17:42;101545.81;;;22.35;75.34
46211;BME280;52144;48.040;-1.594;2023-07-13T07:20:11;101547.78;;;22.33;76.26
46211;BME280;52144;48.040;-1.594;2023-07-13T07:22:40;101553.81;;;22.14;77.52
46211;BME280;52144;48.040;-1.594;2023-07-13T07:25:08;101560.00;;;21.94;76.94
46211;BME280;52144;48.040;-1.594;2023-07-13T07:27:36;101559.84;;;21.50;80.46
46211;BME280;52144;48.040;-1.594;2023-07-13T07:30:07;101562.09;;;22.01;77.22
46211;BME280;52144;48.040;-1.594;2023-07-13T07:32:38;101559.03;;;21.37;81.11
46211;BME280;52144;48.040;-1.594;2023-07-13T07:35:09;101561.88;;;20.89;83.53
46211;BME280;52144;48.040;-1.594;2023-07-13T07:37:37;101564.63;;;21.00;82.69
46211;BME280;52144;48.040;-1.594;2023-07-13T07:40:09;101563.50;;;21.38;80.94
46211;BME280;52144;48.040;-1.594;2023-07-13T07:42:40;101574.91;;;21.99;78.34
46211;BME280;52144;48.040;-1.594;2023-07-13T07:45:08;101579.84;;;22.06;78.36
46211;BME280;52144;48.040;-1.594;2023-07-13T07:47:38;101581.84;;;22.15;76.78
46211;BME280;52144;48.040;-1.594;2023-07-13T07:50:06;101573.56;;;21.94;78.10
46211;BME280;52144;48.040;-1.594;2023-07-13T07:52:34;101577.13;;;22.39;76.49
46211;BME280;52144;48.040;-1.594;2023-07-13T07:55:03;101577.59;;;22.56;75.74
46211;BME280;52144;48.040;-1.594;2023-07-13T07:57:36;101574.44;;;22.28;76.10
46211;BME280;52144;48.040;-1.594;2023-07-13T08:00:07;101576.41;;;22.03;76.46
46211;BME280;52144;48.040;-1.594;2023-07-13T08:02:38;101577.88;;;21.62;79.29
46211;BME280;52144;48.040;-1.594;2023-07-13T08:05:27;101571.44;;;22.42;74.24
46211;BME280;52144;48.040;-1.594;2023-07-13T08:07:58;101570.69;;;22.52;76.71
46211;BME280;52144;48.040;-1.594;2023-07-13T08:10:26;101576.59;;;22.89;73.31
46211;BME280;52144;48.040;-1.594;2023-07-13T08:12:55;101565.28;;;22.84;73.51
46211;BME280;52144;48.040;-1.594;2023-07-13T08:15:26;101580.72;;;22.29;75.46
46211;BME280;52144;48.040;-1.594;2023-07-13T08:17:54;101577.09;;;23.27;72.57
46211;BME280;52144;48.040;-1.594;2023-07-13T08:20:23;101574.91;;;23.20;72.05
46211;BME280;52144;48.040;-1.594;2023-07-13T08:22:50;101581.38;;;23.29;71.54
46211;BME280;52144;48.040;-1.594;2023-07-13T08:25:18;101572.81;;;23.34;70.70
46211;BME280;52144;48.040;-1.594;2023-07-13T08:27:47;101577.00;;;23.17;70.55
46211;BME280;52144;48.040;-1.594;2023-07-13T08:30:16;101566.56;;;23.01;69.08
46211;BME280;52144;48.040;-1.594;2023-07-13T08:32:44;101557.31;;;23.46;68.29
46211;BME280;52144;48.040;-1.594;2023-07-13T08:35:12;101563.19;;;23.51;68.02
46211;BME280;52144;48.040;-1.594;2023-07-13T08:37:40;101562.09;;;23.53;67.27
46211;BME280;52144;48.040;-1.594;2023-07-13T08:40:08;101564.75;;;23.22;68.04
46211;BME280;52144;48.040;-1.594;2023-07-13T08:42:42;101569.03;;;23.46;67.50
46211;BME280;52144;48.040;-1.594;2023-07-13T08:45:19;101557.22;;;23.78;66.09
46211;BME280;52144;48.040;-1.594;2023-07-13T08:47:52;101570.53;;;22.64;68.51
46211;BME280;52144;48.040;-1.594;2023-07-13T08:50:25;101555.06;;;23.09;70.65
46211;BME280;52144;48.040;-1.594;2023-07-13T08:52:56;101557.22;;;23.78;66.60
46211;BME280;52144;48.040;-1.594;2023-07-13T08:55:28;101559.53;;;24.23;62.98
46211;BME280;52144;48.040;-1.594;2023-07-13T08:58:03;101559.44;;;23.42;64.72
46211;BME280;52144;48.040;-1.594;2023-07-13T09:00:37;101568.25;;;23.34;67.04
46211;BME280;52144;48.040;-1.594;2023-07-13T09:03:15;101566.78;;;23.51;65.78
46211;BME280;52144;48.040;-1.594;2023-07-13T09:05:51;101565.78;;;23.52;64.23
46211;BME280;52144;48.040;-1.594;2023-07-13T09:08:44;101564.13;;;23.40;65.16
46211;BME280;52144;48.040;-1.594;2023-07-13T09:11:23;101558.19;;;24.58;63.29
46211;BME280;52144;48.040;-1.594;2023-07-13T09:14:02;101560.66;;;23.59;64.55
46211;BME280;52144;48.040;-1.594;2023-07-13T09:16:34;101555.22;;;23.80;63.18
46211;BME280;52144;48.040;-1.594;2023-07-13T09:19:07;101543.59;;;24.78;60.41
46211;BME280;52144;48.040;-1.594;2023-07-13T09:21:42;101544.91;;;24.24;61.36
46211;BME280;52144;48.040;-1.594;2023-07-13T09:24:28;101555.06;;;24.72;59.39
46211;BME280;52144;48.040;-1.594;2023-07-13T09:26:57;101550.34;;;24.24;59.88
46211;BME280;52144;48.040;-1.594;2023-07-13T09:29:28;101560.88;;;24.38;60.91
46211;BME280;52144;48.040;-1.594;2023-07-13T09:32:01;101555.28;;;24.30;59.51
46211;BME280;52144;48.040;-1.594;2023-07-13T09:34:32;101550.47;;;24.82;57.95
46211;BME280;52144;48.040;-1.594;2023-07-13T09:37:00;101551.03;;;25.35;56.76
46211;BME280;52144;48.040;-1.594;2023-07-13T09:39:30;101548.44;;;25.23;55.67
46211;BME280;52144;48.040;-1.594;2023-07-13T09:42:01;101557.06;;;25.09;53.59
46211;BME280;52144;48.040;-1.594;2023-07-13T09:44:35;101557.19;;;25.17;54.09
46211;BME280;52144;48.040;-1.594;2023-07-13T09:47:15;101565.09;;;25.01;54.33
46211;BME280;52144;48.040;-1.594;2023-07-13T09:49:43;101563.94;;;24.55;55.35
46211;BME280;52144;48.040;-1.594;2023-07-13T09:52:14;101561.97;;;24.96;53.96
46211;BME280;52144;48.040;-1.594;2023-07-13T09:54:46;101571.28;;;24.83;54.00
46211;BME280;52144;48.040;-1.594;2023-07-13T09:57:17;101558.72;;;24.42;53.08
46211;BME280;52144;48.040;-1.594;2023-07-13T09:59:47;101568.81;;;24.80;53.30
46211;BME280;52144;48.040;-1.594;2023-07-13T10:02:35;101559.38;;;24.85;51.69
46211;BME280;52144;48.040;-1.594;2023-07-13T10:05:05;101559.34;;;24.05;52.68
46211;BME280;52144;48.040;-1.594;2023-07-13T10:07:39;101565.75;;;24.45;52.10
46211;BME280;52144;48.040;-1.594;2023-07-13T10:10:14;101570.84;;;24.98;51.40
46211;BME280;52144;48.040;-1.594;2023-07-13T10:12:43;101567.25;;;24.68;51.69
46211;BME280;52144;48.040;-1.594;2023-07-13T10:15:16;101565.81;;;24.64;52.10
46211;BME280;52144;48.040;-1.594;2023-07-13T10:17:53;101561.66;;;24.60;53.00
46211;BME280;52144;48.040;-1.594;2023-07-13T10:20:26;101558.50;;;25.23;51.65
46211;BME280;52144;48.040;-1.594;2023-07-13T10:22:57;101564.69;;;24.86;51.36
46211;BME280;52144;48.040;-1.594;2023-07-13T10:25:29;101565.91;;;25.50;50.17
46211;BME280;52144;48.040;-1.594;2023-07-13T10:28:04;101563.97;;;25.03;50.97
46211;BME280;52144;48.040;-1.594;2023-07-13T10:30:35;101564.44;;;24.29;51.92
46211;BME280;52144;48.040;-1.594;2023-07-13T10:33:10;101568.41;;;24.95;51.37
46211;BME280;52144;48.040;-1.594;2023-07-13T10:35:42;101560.78;;;25.18;51.06
46211;BME280;52144;48.040;-1.594;2023-07-13T10:38:12;101564.47;;;25.56;49.74
46211;BME280;52144;48.040;-1.594;2023-07-13T10:40:57;101560.84;;;25.75;49.51
46211;BME280;52144;48.040;-1.594;2023-07-13T10:43:28;101557.53;;;25.24;46.95
46211;BME280;52144;48.040;-1.594;2023-07-13T10:45:59;101555.06;;;25.31;46.98
46211;BME280;52144;48.040;-1.594;2023-07-13T10:48:30;101558.59;;;25.51;45.37
46211;BME280;52144;48.040;-1.594;2023-07-13T10:50:58;101550.47;;;25.21;45.71
46211;BME280;52144;48.040;-1.594;2023-07-13T10:53:30;101555.16;;;26.23;45.03
46211;BME280;52144;48.040;-1.594;2023-07-13T10:56:00;101556.38;;;26.57;44.41
46211;BME280;52144;48.040;-1.594;2023-07-13T10:58:32;101545.38;;;25.46;45.08
46211;BME280;52144;48.040;-1.594;2023-07-13T11:01:08;101557.44;;;26.28;45.11
46211;BME280;52144;48.040;-1.594;2023-07-13T11:03:47;101552.72;;;26.48;44.08
46211;BME280;52144;48.040;-1.594;2023-07-13T11:06:30;101552.09;;;26.54;43.83
46211;BME280;52144;48.040;-1.594;2023-07-13T11:09:18;101560.84;;;26.58;43.66
46211;BME280;52144;48.040;-1.594;2023-07-13T11:11:46;101550.34;;;26.99;42.81
46211;BME280;52144;48.040;-1.594;2023-07-13T11:14:29;101552.50;;;27.13;43.71
46211;BME280;52144;48.040;-1.594;2023-07-13T11:16:57;101547.53;;;27.35;43.30
46211;BME280;52144;48.040;-1.594;2023-07-13T11:19:38;101547.06;;;26.50;43.66
46211;BME280;52144;48.040;-1.594;2023-07-13T11:22:13;101548.94;;;26.77;44.14
46211;BME280;52144;48.040;-1.594;2023-07-13T11:24:50;101545.56;;;26.37;44.66
46211;BME280;52144;48.040;-1.594;2023-07-13T11:27:34;101537.34;;;27.45;43.59
46211;BME280;52144;48.040;-1.594;2023-07-13T11:30:24;101544.25;;;26.69;45.11
46211;BME280;52144;48.040;-1.594;2023-07-13T11:33:03;101543.16;;;26.34;45.10
46211;BME280;52144;48.040;-1.594;2023-07-13T11:35:36;101531.88;;;26.19;44.79
46211;BME280;52144;48.040;-1.594;2023-07-13T11:38:13;101544.66;;;26.47;44.85
46211;BME280;52144;48.040;-1.594;2023-07-13T11:40:44;101546.56;;;26.82;44.69
46211;BME280;52144;48.040;-1.594;2023-07-13T11:43:20;101536.66;;;27.43;45.14
46211;BME280;52144;48.040;-1.594;2023-07-13T11:45:50;101540.41;;;26.62;44.97
46211;BME280;52144;48.040;-1.594;2023-07-13T11:48:20;101536.91;;;26.88;44.89
46211;BME280;52144;48.040;-1.594;2023-07-13T11:50:56;101546.34;;;27.11;44.13
46211;BME280;52144;48.040;-1.594;2023-07-13T11:53:27;101542.81;;;26.19;45.20
46211;BME280;52144;48.040;-1.594;2023-07-13T11:55:57;101544.81;;;25.99;46.30
46211;BME280;52144;48.040;-1.594;2023-07-13T11:58:26;101543.00;;;26.64;44.75
46211;BME280;52144;48.040;-1.594;2023-07-13T12:00:58;101535.53;;;26.56;45.00
46211;BME280;52144;48.040;-1.594;2023-07-13T12:03:28;101542.66;;;26.21;45.57
46211;BME280;52144;48.040;-1.594;2023-07-13T12:06:00;101540.34;;;26.26;45.72
46211;BME280;52144;48.040;-1.594;2023-07-13T12:08:29;101532.88;;;26.00;46.37
46211;BME280;52144;48.040;-1.594;2023-07-13T12:11:00;101535.00;;;26.70;44.99
46211;BME280;52144;48.040;-1.594;2023-07-13T12:13:35;101528.94;;;26.31;45.08
46211;BME280;52144;48.040;-1.594;2023-07-13T12:16:11;101529.72;;;26.23;46.47
46211;BME280;52144;48.040;-1.594;2023-07-13T12:18:39;101530.38;;;26.89;45.76
46211;BME280;52144;48.040;-1.594;2023-07-13T12:21:17;101535.06;;;26.96;44.74
46211;BME280;52144;48.040;-1.594;2023-07-13T12:23:47;101530.50;;;26.33;45.68
46211;BME280;52144;48.040;-1.594;2023-07-13T12:26:17;101521.25;;;25.89;45.85
46211;BME280;52144;48.040;-1.594;2023-07-13T12:28:47;101527.81;;;26.51;45.63
46211;BME280;52144;48.040;-1.594;2023-07-13T12:31:26;101516.09;;;27.39;44.57
46211;BME280;52144;48.040;-1.594;2023-07-13T12:33:58;101521.97;;;26.64;45.18
46211;BME280;52144;48.040;-1.594;2023-07-13T12:36:30;101514.69;;;26.55;45.98
46211;BME280;52144;48.040;-1.594;2023-07-13T12:39:04;101513.81;;;26.36;45.61
46211;BME280;52144;48.040;-1.594;2023-07-13T12:41:33;101515.88;;;26.52;46.18
46211;BME280;52144;48.040;-1.594;2023-07-13T12:44:01;101516.41;;;26.92;45.62
46211;BME280;52144;48.040;-1.594;2023-07-13T12:46:29;101507.59;;;26.98;45.30
46211;BME280;52144;48.040;-1.594;2023-07-13T12:48:58;101519.28;;;27.08;44.88
46211;BME280;52144;48.040;-1.594;2023-07-13T12:51:49;101513.13;;;26.34;45.92
46211;BME280;52144;48.040;-1.594;2023-07-13T12:54:18;101513.22;;;26.42;45.44
46211;BME280;52144;48.040;-1.594;2023-07-13T12:56:49;101509.63;;;26.78;45.69